Vershire, Vermont
Current Conditions -  °F | °C
As of 11:51 AM on Friday 19 Dec 2014 (Local Time) from KMPV Reporting Station
Overcast Overcast  
Wind Chill: 13°   Ceiling: 1400
Heat Index: 23°   Visibility: 10mi
Dew Point: 18°   Wind: 9mph
Humidity: 81%   Direction: 340°NNW
Pressure: 30.02"   Gusts: NA
Location:  43.97°N, 72.32°W
Report Text: KMPV 191651Z AUTO 34008KT 10SM OVC014 M05/M08 A3002 RMK AO2 SLP185 T10501078
Loading
Personal Weather Stations






























Interactive Weather Map New forecast layout! Learn more

10-Day Weather Forecast

Advertisements
Track Severe Weather on mobile